Gaz Venture — 3FLQ4 — position and weather

sailwx.info

Track history (hours):
 
Tides and Currents Weather Stations Pressure Air Temp Water Temp Dewpoint Dewpoint Depression Visibility Wind Speed Wind Dir Waves Ship Positions

Gaz Venture

Last reported at 2018-Feb-22 07:44 UTC. Time now 2018-Feb-22 08:41 UTC.
Position N 35°47' E 014°54'.

Length 120 m; draft 5.8 m.

Type: Ship (hazmat cat C). MMSI: 356141000.

Date/timePositionNaut miles runAvg speedWind from/ knotsBaromVisibWave heightAir tempDewpointWater temp
2018-Feb-22 07:44N 35°47' E 014°54'0 0.0
2018-Feb-21 03:53N 35°46' E 014°54'0 0.1
2018-Feb-21 03:23N 35°47' E 014°54'0 0.0
2018-Feb-21 02:56N 35°46' E 014°54'0 0.0
2018-Feb-21 00:14N 35°46' E 014°54'0 0.0
2018-Feb-20 23:56N 35°46' E 014°54'0 0.0
2018-Feb-20 23:17N 35°46' E 014°54'0 0.0
2018-Feb-20 22:50N 35°46' E 014°54'0 0.1
2018-Feb-20 22:29N 35°46' E 014°54'0 0.0
2018-Feb-20 21:02N 35°46' E 014°54'0 0.5
2018-Feb-20 20:59N 35°46' E 014°54'0 0.0
2018-Feb-20 19:41N 35°46' E 014°54'0 0.0
2018-Feb-20 18:44N 35°46' E 014°54'0 0.0
2018-Feb-20 18:26N 35°46' E 014°54'0 0.0
2018-Feb-20 14:14N 35°46' E 014°54'0 0.0
2018-Feb-20 08:29N 35°46' E 014°54'0 0.0
2018-Feb-19 13:59N 35°46' E 014°54'0 0.0
2018-Feb-19 10:53N 35°46' E 014°54'0 0.0
2018-Feb-19 09:44N 35°46' E 014°54'0 0.0
2018-Feb-18 21:35N 35°47' E 014°54'0 0.1
2018-Feb-18 21:26N 35°47' E 014°54'0 0.0
2018-Feb-18 20:08N 35°47' E 014°54'0 0.0
2018-Feb-18 17:38N 35°47' E 014°54'  
2018-Feb-14 12:47N 35°46' E 014°44'414.1
2018-Feb-14 12:28N 35°48' E 014°40'4 7.1
2018-Feb-14 11:59N 35°50' E 014°36'0 0.1
2018-Feb-14 11:23N 35°50' E 014°36'0 0.0
2018-Feb-14 10:59N 35°50' E 014°36'0 0.0
2018-Feb-14 10:29N 35°50' E 014°36'0 0.1
2018-Feb-14 09:59N 35°50' E 014°36'0 0.0
2018-Feb-14 09:29N 35°50' E 014°36'0 0.1
2018-Feb-14 08:59N 35°50' E 014°36'0 0.0
2018-Feb-14 08:29N 35°50' E 014°36'0 0.0
2018-Feb-14 07:59N 35°50' E 014°36'0 0.0
2018-Feb-14 07:29N 35°50' E 014°36'0 0.1
2018-Feb-14 06:59N 35°50' E 014°36'0 0.1
2018-Feb-14 06:30N 35°50' E 014°36'3 7.0
2018-Feb-14 06:00N 35°49' E 014°40'612.8
2018-Feb-14 05:30N 35°45' E 014°46'3 0.5
2018-Feb-14 00:23N 35°45' E 014°49'1 0.2
2018-Feb-13 17:14N 35°46' E 014°50'11312.4
2018-Feb-13 08:08N 37°30' E 015°46'213.0
2018-Feb-13 08:00N 37°31' E 015°48'1213.0
2018-Feb-13 07:06N 37°39' E 015°59'312.8
2018-Feb-13 06:53N 37°40' E 016°01'4612.5
2018-Feb-13 03:11N 38°10' E 016°46'12613.9
2018-Feb-12 18:04N 39°43' E 018°36'214.2
2018-Feb-12 17:57N 39°45' E 018°37'614.3
2018-Feb-12 17:30N 39°51' E 018°38'814.8
2018-Feb-12 16:59N 39°59' E 018°39'  
Track history (hours):
 
Tides and Currents Weather Stations Pressure Air Temp Water Temp Dewpoint Dewpoint Depression Visibility Wind Speed Wind Dir Waves Ship Positions

Gaz Venture

Last reported at 2018-Feb-22 07:44 UTC. Time now 2018-Feb-22 08:41 UTC.
Position N 35°47' E 014°54'.

Length 120 m; draft 5.8 m.

Type: Ship (hazmat cat C). MMSI: 356141000.

Date/timePositionNaut miles runAvg speedWind from/ knotsBaromVisibWave heightAir tempDewpointWater temp
2018-Feb-22 07:44N 35°47' E 014°54'0 0.0
2018-Feb-21 03:53N 35°46' E 014°54'0 0.1
2018-Feb-21 03:23N 35°47' E 014°54'0 0.0
2018-Feb-21 02:56N 35°46' E 014°54'0 0.0
2018-Feb-21 00:14N 35°46' E 014°54'0 0.0
2018-Feb-20 23:56N 35°46' E 014°54'0 0.0
2018-Feb-20 23:17N 35°46' E 014°54'0 0.0
2018-Feb-20 22:50N 35°46' E 014°54'0 0.1
2018-Feb-20 22:29N 35°46' E 014°54'0 0.0
2018-Feb-20 21:02N 35°46' E 014°54'0 0.5
2018-Feb-20 20:59N 35°46' E 014°54'0 0.0
2018-Feb-20 19:41N 35°46' E 014°54'0 0.0
2018-Feb-20 18:44N 35°46' E 014°54'0 0.0
2018-Feb-20 18:26N 35°46' E 014°54'0 0.0
2018-Feb-20 14:14N 35°46' E 014°54'0 0.0
2018-Feb-20 08:29N 35°46' E 014°54'0 0.0
2018-Feb-19 13:59N 35°46' E 014°54'0 0.0
2018-Feb-19 10:53N 35°46' E 014°54'0 0.0
2018-Feb-19 09:44N 35°46' E 014°54'0 0.0
2018-Feb-18 21:35N 35°47' E 014°54'0 0.1
2018-Feb-18 21:26N 35°47' E 014°54'0 0.0
2018-Feb-18 20:08N 35°47' E 014°54'0 0.0
2018-Feb-18 17:38N 35°47' E 014°54'  
2018-Feb-14 12:47N 35°46' E 014°44'414.1
2018-Feb-14 12:28N 35°48' E 014°40'4 7.1
2018-Feb-14 11:59N 35°50' E 014°36'0 0.1
2018-Feb-14 11:23N 35°50' E 014°36'0 0.0
2018-Feb-14 10:59N 35°50' E 014°36'0 0.0
2018-Feb-14 10:29N 35°50' E 014°36'0 0.1
2018-Feb-14 09:59N 35°50' E 014°36'0 0.0
2018-Feb-14 09:29N 35°50' E 014°36'0 0.1
2018-Feb-14 08:59N 35°50' E 014°36'0 0.0
2018-Feb-14 08:29N 35°50' E 014°36'0 0.0
2018-Feb-14 07:59N 35°50' E 014°36'0 0.0
2018-Feb-14 07:29N 35°50' E 014°36'0 0.1
2018-Feb-14 06:59N 35°50' E 014°36'0 0.1
2018-Feb-14 06:30N 35°50' E 014°36'3 7.0
2018-Feb-14 06:00N 35°49' E 014°40'612.8
2018-Feb-14 05:30N 35°45' E 014°46'3 0.5
2018-Feb-14 00:23N 35°45' E 014°49'1 0.2
2018-Feb-13 17:14N 35°46' E 014°50'11312.4
2018-Feb-13 08:08N 37°30' E 015°46'213.0
2018-Feb-13 08:00N 37°31' E 015°48'1213.0
2018-Feb-13 07:06N 37°39' E 015°59'312.8
2018-Feb-13 06:53N 37°40' E 016°01'4612.5
2018-Feb-13 03:11N 38°10' E 016°46'12613.9
2018-Feb-12 18:04N 39°43' E 018°36'214.2
2018-Feb-12 17:57N 39°45' E 018°37'614.3
2018-Feb-12 17:30N 39°51' E 018°38'814.8
2018-Feb-12 16:59N 39°59' E 018°39'  

Dump ship's entire track history